EDT,Max TemperatureF,Mean TemperatureF,Min TemperatureF,Max Dew PointF,MeanDew PointF,Min DewpointF,Max Humidity, Mean Humidity, Min Humidity, Max Sea Level PressureIn, Mean Sea Level PressureIn, Min Sea Level PressureIn, Max VisibilityMiles, Mean VisibilityMiles, Min VisibilityMiles, Max Wind SpeedMPH, Mean Wind SpeedMPH, Max Gust SpeedMPH,PrecipitationIn, CloudCover, Events, WindDirDegrees
2014-3-1,43,29,15,19,11,2,61,45,29,30.36,30.26,30.16,10,10,10,12,3,20,0.00,4,,183
2014-3-2,41,36,31,35,28,20,85,65,44,30.14,30.05,30.01,10,6,2,14,4,18,0.22,8,Rain,5
2014-3-3,31,15,-1,25,7,-5,84,62,39,30.38,30.21,30.02,10,5,0,21,9,26,0.11,5,Snow,333
2014-3-4,30,14,-3,9,1,-7,87,58,29,30.45,30.34,30.25,10,9,6,8,1,12,0.00,0,,190
2014-3-5,43,28,12,17,11,7,80,55,29,30.44,30.27,30.20,10,9,6,18,5,26,0.00,2,,42
2014-3-6,33,27,21,16,12,7,58,51,43,30.59,30.48,30.38,10,10,10,17,7,22,0.00,4,,53
2014-3-7,43,35,27,27,22,15,81,67,53,30.36,30.16,29.97,10,10,8,10,5,13,0.00,6,,26
2014-3-8,63,43,22,34,27,19,88,59,30,29.98,29.94,29.88,10,8,4,20,5,28,0.00,1,,271
2014-3-9,48,42,36,33,20,11,70,47,23,30.15,30.05,29.95,10,10,6,21,10,28,0.00,2,,310
2014-3-10,69,53,37,30,26,19,54,39,24,29.99,29.79,29.63,10,10,10,23,10,30,0.00,0,,235
2014-3-11,73,58,42,38,35,31,70,49,28,29.71,29.65,29.61,10,10,10,25,9,32,0.00,0,,236
2014-3-12,70,49,28,55,37,14,79,63,47,29.63,29.34,29.03,10,9,2,46,10,61,0.11,5,Rain,272
2014-3-13,32,24,16,13,1,-5,53,36,26,30.18,29.94,29.59,10,10,10,31,19,45,0.00,1,,298
2014-3-14,60,42,24,19,13,4,43,31,19,30.19,30.04,29.83,10,10,10,21,10,28,0.00,3,,180
2014-3-15,62,53,43,35,22,16,56,36,16,30.07,29.90,29.78,10,10,10,31,13,40,0.00,2,,270
2014-3-16,44,35,26,27,23,12,85,58,30,30.20,30.13,30.09,10,4,1,20,9,23,0.01,5,Snow,38
2014-3-17,31,27,23,22,20,17,88,76,63,30.10,30.05,30.01,10,4,1,15,5,18,0.11,8,Snow,19
2014-3-18,42,36,29,25,20,11,75,56,37,30.22,30.17,30.09,10,10,9,8,1,12,0.00,8,,69
2014-3-19,44,39,34,38,33,24,96,75,54,30.21,30.07,29.86,10,7,1,17,5,23,0.04,8,Rain,130
2014-3-20,54,47,40,38,30,20,92,60,28,30.01,29.89,29.81,10,7,2,33,15,43,0.00,5,,277
2014-3-21,52,43,34,34,30,24,82,64,46,30.09,30.04,30.01,10,10,6,15,5,21,0.01,4,Rain,289
2014-3-22,68,52,35,36,29,25,82,52,21,30.05,29.90,29.82,10,9,4,28,8,38,0.00,0,,306
2014-3-23,45,36,27,27,18,6,59,42,25,30.23,30.10,30.04,10,10,10,22,10,28,0.00,3,,325
2014-3-24,40,30,20,6,4,1,52,36,20,30.34,30.24,30.14,10,10,10,17,7,29,0.00,1,,322
2014-3-25,33,28,22,28,23,8,88,65,42,30.13,29.97,29.87,10,3,0,10,3,12,0.18,6,Fog-Snow,10
2014-3-26,35,28,21,21,10,3,88,58,28,30.33,30.11,29.90,10,9,2,28,14,39,T,1,,310
2014-3-27,50,33,16,20,14,6,73,51,29,30.41,30.30,30.13,10,10,10,17,6,25,0.00,1,,155
2014-3-28,68,54,39,49,40,20,86,60,34,30.10,30.02,29.94,10,9,5,21,8,31,0.08,4,Rain,182
2014-3-29,52,49,46,46,43,39,93,80,66,30.09,29.86,29.61,10,5,1,14,8,22,0.64,7,Rain,5
2014-3-30,47,41,35,44,35,27,86,68,49,29.90,29.70,29.60,10,7,2,36,20,49,0.61,7,Rain-Snow,317
2014-3-31,67,54,40,27,25,22,55,37,18,30.12,30.05,29.93,10,10,10,32,13,39,0.00,0,,322